createdAt,value
2022-11-23T00:01:51.694Z,70.00
2022-11-23T00:04:20.381Z,70.00
2022-11-23T00:06:49.162Z,70.60
2022-11-23T00:09:17.790Z,70.00
2022-11-23T00:11:46.327Z,69.90
2022-11-23T00:14:14.918Z,70.00
2022-11-23T00:16:50.966Z,70.60
2022-11-23T00:19:19.568Z,70.10
2022-11-23T00:21:48.062Z,69.90
2022-11-23T00:24:16.520Z,70.00
2022-11-23T00:26:45.188Z,70.20
2022-11-23T00:29:13.804Z,69.90
2022-11-23T00:31:42.391Z,69.40
2022-11-23T00:34:12.573Z,69.30
2022-11-23T00:36:41.385Z,69.20
2022-11-23T00:39:09.892Z,69.40
2022-11-23T00:41:38.595Z,69.30
2022-11-23T00:44:08.009Z,69.50
2022-11-23T00:46:36.707Z,69.20
2022-11-23T00:49:06.979Z,68.30
2022-11-23T00:51:38.272Z,68.70
2022-11-23T00:54:07.407Z,68.80
2022-11-23T00:56:36.522Z,68.50
2022-11-23T00:59:05.288Z,68.10
2022-11-23T01:01:37.321Z,67.70
2022-11-23T01:04:24.579Z,67.60
2022-11-23T01:06:56.936Z,67.30
2022-11-23T01:09:27.042Z,66.90
2022-11-23T01:11:55.656Z,66.80
2022-11-23T01:14:26.027Z,66.40
2022-11-23T01:16:54.696Z,66.10
2022-11-23T01:19:23.288Z,65.70
2022-11-23T01:21:51.974Z,65.30
2022-11-23T01:24:23.582Z,65.30
2022-11-23T01:26:52.809Z,65.40
2022-11-23T01:29:21.944Z,65.40
2022-11-23T01:31:50.434Z,65.40
2022-11-23T01:34:19.111Z,65.10
2022-11-23T01:36:47.927Z,64.70
2022-11-23T01:39:16.455Z,64.50
2022-11-23T01:41:47.109Z,64.60
2022-11-23T01:44:26.436Z,64.40
2022-11-23T01:46:56.016Z,64.00
2022-11-23T01:49:25.286Z,63.60
2022-11-23T01:51:56.484Z,63.10
2022-11-23T01:54:26.906Z,63.00
2022-11-23T01:56:58.960Z,62.90
2022-11-23T01:59:28.378Z,62.70
2022-11-23T02:01:56.971Z,62.40
2022-11-23T02:04:29.640Z,62.30
2022-11-23T02:06:58.835Z,62.10
2022-11-23T02:09:30.783Z,61.20
2022-11-23T02:12:01.485Z,61.40
2022-11-23T02:14:30.543Z,61.30
2022-11-23T02:16:59.961Z,61.50
2022-11-23T02:19:33.909Z,61.30
2022-11-23T02:22:02.674Z,61.10
2022-11-23T02:24:51.077Z,60.80
2022-11-23T02:27:21.177Z,60.50
2022-11-23T02:29:52.549Z,60.60
2022-11-23T02:32:23.523Z,60.70
2022-11-23T02:35:11.812Z,60.80
2022-11-23T02:37:41.362Z,60.40
2022-11-23T02:40:16.214Z,60.20
2022-11-23T02:42:46.891Z,60.00
2022-11-23T02:45:19.940Z,60.00
2022-11-23T02:47:49.427Z,60.00
2022-11-23T02:50:17.838Z,60.00
2022-11-23T02:52:46.403Z,60.10
2022-11-23T02:55:17.642Z,60.10
2022-11-23T02:58:06.891Z,60.10
2022-11-23T03:00:35.557Z,59.80
2022-11-23T03:03:04.834Z,59.80
2022-11-23T03:05:34.778Z,59.70
2022-11-23T03:08:07.014Z,59.60
2022-11-23T03:10:35.784Z,59.20
2022-11-23T03:13:05.737Z,59.00
2022-11-23T03:15:37.433Z,59.00
2022-11-23T03:18:07.191Z,58.70
2022-11-23T03:20:36.563Z,58.70
2022-11-23T03:23:06.335Z,58.70
2022-11-23T03:25:34.869Z,58.60
2022-11-23T03:28:07.121Z,58.50
2022-11-23T03:30:35.788Z,58.40
2022-11-23T03:33:06.719Z,58.40
2022-11-23T03:35:36.634Z,58.60
2022-11-23T03:38:22.004Z,58.80
2022-11-23T03:40:50.623Z,58.70
2022-11-23T03:43:38.425Z,58.50
2022-11-23T03:46:06.976Z,58.00
2022-11-23T03:48:35.627Z,58.10
2022-11-23T03:51:04.462Z,57.60
2022-11-23T03:53:33.010Z,57.40
2022-11-23T03:56:01.614Z,57.50
2022-11-23T03:58:33.977Z,57.40
2022-11-23T04:01:07.952Z,57.30
2022-11-23T04:03:36.835Z,57.30
2022-11-23T04:06:12.863Z,57.40
2022-11-23T04:09:02.990Z,57.10
2022-11-23T04:11:42.065Z,57.20
2022-11-23T04:14:10.687Z,56.90
2022-11-23T04:16:40.602Z,56.70
2022-11-23T04:19:09.314Z,56.60
2022-11-23T04:21:39.028Z,56.50
2022-11-23T04:24:08.475Z,56.50
2022-11-23T04:26:38.325Z,56.40
2022-11-23T04:29:06.850Z,55.90
2022-11-23T04:31:37.718Z,55.80
2022-11-23T04:34:14.936Z,55.60
2022-11-23T04:36:43.935Z,55.30
2022-11-23T04:39:13.990Z,55.20
2022-11-23T04:41:59.031Z,55.10
2022-11-23T04:44:27.762Z,55.00
2022-11-23T04:47:02.777Z,54.70
2022-11-23T04:49:33.522Z,54.50
2022-11-23T04:52:02.229Z,54.40
2022-11-23T04:54:36.657Z,54.30
2022-11-23T04:57:09.273Z,54.00
2022-11-23T04:59:39.550Z,53.40
2022-11-23T05:02:08.215Z,53.40
2022-11-23T05:04:59.910Z,53.40
2022-11-23T05:07:32.499Z,53.40
2022-11-23T05:10:08.086Z,53.40
2022-11-23T05:12:38.097Z,53.20
2022-11-23T05:15:07.151Z,53.40
2022-11-23T05:17:38.614Z,53.50
2022-11-23T05:20:13.886Z,53.60
2022-11-23T05:22:48.157Z,53.80
2022-11-23T05:25:20.896Z,53.90
2022-11-23T05:27:56.558Z,54.00
2022-11-23T05:30:25.280Z,54.00
2022-11-23T05:32:53.900Z,54.20
2022-11-23T05:35:25.193Z,54.10
2022-11-23T05:37:53.994Z,54.10
2022-11-23T05:40:22.673Z,53.90
2022-11-23T05:42:56.258Z,53.70
2022-11-23T05:45:25.436Z,53.70
2022-11-23T05:47:57.075Z,53.60
2022-11-23T05:50:51.368Z,53.40
2022-11-23T05:53:29.198Z,53.20
2022-11-23T05:56:05.938Z,53.20
2022-11-23T05:58:40.239Z,53.10
2022-11-23T06:01:10.488Z,53.00
2022-11-23T06:03:40.672Z,53.00
2022-11-23T06:06:11.370Z,52.80
2022-11-23T06:08:58.451Z,52.80
2022-11-23T06:11:27.305Z,52.70
2022-11-23T06:13:59.955Z,52.50
2022-11-23T06:16:28.846Z,52.60
2022-11-23T06:19:10.797Z,52.40
2022-11-23T06:21:47.455Z,52.30
2022-11-23T06:24:19.965Z,52.20
2022-11-23T06:26:55.805Z,52.30
2022-11-23T06:29:42.867Z,52.30
2022-11-23T06:32:11.616Z,52.30
2022-11-23T06:34:40.170Z,52.20
2022-11-23T06:37:10.320Z,52.20
2022-11-23T06:39:40.333Z,52.10
2022-11-23T06:44:59.593Z,51.40
2022-11-23T06:47:29.390Z,51.10
2022-11-23T06:49:59.350Z,51.00
2022-11-23T06:52:31.672Z,50.70
2022-11-23T06:55:00.196Z,50.50
2022-11-23T06:57:28.814Z,50.30
2022-11-23T06:59:57.904Z,50.10
2022-11-23T07:02:33.568Z,50.10
2022-11-23T07:05:02.657Z,49.60
2022-11-23T07:07:34.744Z,49.40
2022-11-23T07:10:10.472Z,49.50
2022-11-23T07:12:46.447Z,49.50
2022-11-23T07:15:17.536Z,49.40
2022-11-23T07:17:47.196Z,48.90
2022-11-23T07:20:16.022Z,48.80
2022-11-23T07:22:47.491Z,48.60
2022-11-23T07:25:19.249Z,48.50
2022-11-23T07:27:47.850Z,48.40
2022-11-23T07:30:17.102Z,48.20
2022-11-23T07:32:47.067Z,47.80
2022-11-23T07:35:15.661Z,47.90
2022-11-23T07:37:48.040Z,47.90
2022-11-23T07:40:16.755Z,47.60
2022-11-23T07:42:45.639Z,47.40
2022-11-23T07:45:15.926Z,47.00
2022-11-23T07:47:59.336Z,47.10
2022-11-23T07:50:28.164Z,47.10
2022-11-23T07:52:58.618Z,46.80
2022-11-23T07:55:27.624Z,46.30
2022-11-23T07:57:56.524Z,46.40
2022-11-23T08:00:25.360Z,46.30
2022-11-23T08:03:25.523Z,46.30
2022-11-23T08:05:42.658Z,45.60
2022-11-23T08:08:12.686Z,46.00
2022-11-23T08:10:46.074Z,46.10
2022-11-23T08:13:17.135Z,45.90
2022-11-23T08:15:50.175Z,45.70
2022-11-23T08:18:22.190Z,45.70
2022-11-23T08:20:50.760Z,45.40
2022-11-23T08:23:20.657Z,45.20
2022-11-23T08:25:49.350Z,44.70
2022-11-23T08:28:18.123Z,44.60
2022-11-23T08:30:46.728Z,44.60
2022-11-23T08:33:15.659Z,44.40
2022-11-23T08:35:44.267Z,44.00
2022-11-23T08:38:12.772Z,44.20
2022-11-23T08:40:42.756Z,44.00
2022-11-23T08:43:11.381Z,43.60
2022-11-23T08:45:39.943Z,43.20
2022-11-23T08:48:09.046Z,43.10
2022-11-23T08:50:37.613Z,42.70
2022-11-23T08:53:06.126Z,42.70
2022-11-23T08:55:34.717Z,43.00
2022-11-23T08:58:07.871Z,42.80
2022-11-23T09:00:40.634Z,42.70
2022-11-23T09:03:09.042Z,42.40
2022-11-23T09:05:39.305Z,42.20
2022-11-23T09:08:09.187Z,41.80
2022-11-23T09:10:38.123Z,41.50
2022-11-23T09:13:08.097Z,41.00
2022-11-23T09:15:37.117Z,40.20
2022-11-23T09:18:05.940Z,39.50
2022-11-23T09:20:34.422Z,39.20
2022-11-23T09:23:03.303Z,38.90
2022-11-23T09:25:32.035Z,39.30
2022-11-23T09:28:00.837Z,38.90
2022-11-23T09:30:30.842Z,38.00
2022-11-23T09:32:59.393Z,36.90
2022-11-23T09:35:27.903Z,37.00
2022-11-23T09:37:57.274Z,36.80
2022-11-23T09:40:26.913Z,36.60
2022-11-23T09:43:01.871Z,36.50
2022-11-23T09:45:36.339Z,36.60
2022-11-23T09:48:19.833Z,36.10
2022-11-23T09:50:53.146Z,36.30
2022-11-23T09:53:23.490Z,35.80
2022-11-23T09:55:54.386Z,35.50
2022-11-23T09:58:23.984Z,35.40
2022-11-23T10:00:55.386Z,35.20
2022-11-23T10:03:23.946Z,34.60
2022-11-23T10:05:59.252Z,34.20
2022-11-23T10:08:32.678Z,34.20
2022-11-23T10:11:07.567Z,34.00
2022-11-23T10:13:38.188Z,34.00
2022-11-23T10:16:26.242Z,33.90
2022-11-23T10:18:59.721Z,34.00
2022-11-23T10:21:31.042Z,33.70
2022-11-23T10:24:06.505Z,33.50
2022-11-23T10:26:37.797Z,33.60
2022-11-23T10:29:28.776Z,33.80
2022-11-23T10:31:59.005Z,33.70
2022-11-23T10:34:35.287Z,34.00
2022-11-23T10:37:03.878Z,33.90
2022-11-23T10:39:32.925Z,34.10
2022-11-23T10:42:03.513Z,34.30
2022-11-23T10:44:33.102Z,34.50
2022-11-23T10:47:03.316Z,34.30
2022-11-23T10:49:33.319Z,34.20
2022-11-23T10:52:03.837Z,34.30
2022-11-23T10:54:33.709Z,34.40
2022-11-23T10:57:03.531Z,34.30
2022-11-23T10:59:36.381Z,34.30
2022-11-23T11:02:15.932Z,34.60
2022-11-23T11:04:44.769Z,35.00
2022-11-23T11:07:22.559Z,35.30
2022-11-23T11:09:52.308Z,35.40
2022-11-23T11:12:20.991Z,34.90
2022-11-23T11:15:11.347Z,34.70
2022-11-23T11:17:42.385Z,34.70
2022-11-23T11:20:33.304Z,34.60
2022-11-23T11:23:05.215Z,35.10
2022-11-23T11:25:37.540Z,35.40
2022-11-23T11:28:20.004Z,35.60
2022-11-23T11:30:54.931Z,35.70
2022-11-23T11:33:36.173Z,35.90
2022-11-23T11:36:07.485Z,35.90
2022-11-23T11:38:38.896Z,36.30
2022-11-23T11:41:10.259Z,36.60
2022-11-23T11:43:44.094Z,36.40
2022-11-23T11:46:31.402Z,36.40
2022-11-23T11:49:07.473Z,36.50
2022-11-23T11:51:39.607Z,36.50
2022-11-23T11:54:17.804Z,36.60
2022-11-23T11:56:51.312Z,36.40
2022-11-23T11:59:28.311Z,36.60
2022-11-23T12:02:10.979Z,36.90
2022-11-23T12:04:45.023Z,37.20
2022-11-23T12:07:19.700Z,37.90
2022-11-23T12:09:53.001Z,38.80
2022-11-23T12:12:29.496Z,38.60
2022-11-23T12:14:59.464Z,38.50
2022-11-23T12:18:11.479Z,38.80
2022-11-23T12:20:52.623Z,38.50
2022-11-23T12:23:33.549Z,38.40
2022-11-23T12:26:18.904Z,38.50
2022-11-23T12:29:00.596Z,38.50
2022-11-23T12:31:42.646Z,38.30
2022-11-23T12:34:27.046Z,38.50
2022-11-23T12:37:17.886Z,38.60
2022-11-23T12:40:12.335Z,38.50
2022-11-23T12:42:44.411Z,38.80
2022-11-23T12:45:30.950Z,38.70
2022-11-23T12:48:15.813Z,38.90
2022-11-23T12:50:53.499Z,38.90
2022-11-23T12:53:38.395Z,38.90
2022-11-23T12:56:20.592Z,39.20
2022-11-23T12:58:50.643Z,39.80
2022-11-23T13:01:29.281Z,43.90
2022-11-23T13:04:36.605Z,45.70
2022-11-23T13:07:48.920Z,47.40
2022-11-23T13:10:31.610Z,49.90
2022-11-23T13:13:16.440Z,52.20
2022-11-23T13:16:16.194Z,54.00
2022-11-23T13:19:14.977Z,55.40
2022-11-23T13:21:46.298Z,56.70
2022-11-23T13:24:36.827Z,58.10
2022-11-23T13:27:43.268Z,59.50
2022-11-23T13:30:26.094Z,60.40
2022-11-23T13:33:34.477Z,61.50
2022-11-23T13:36:11.430Z,62.80
2022-11-23T13:38:46.258Z,63.80
2022-11-23T13:41:57.669Z,64.80
2022-11-23T13:44:31.137Z,65.70
2022-11-23T13:47:19.466Z,66.40
2022-11-23T13:49:50.626Z,67.10
2022-11-23T13:52:34.898Z,67.90
2022-11-23T13:55:21.001Z,68.40
2022-11-23T13:58:23.195Z,68.90
2022-11-23T14:00:55.014Z,69.40
2022-11-23T14:03:50.229Z,69.80
2022-11-23T14:06:32.757Z,70.30
2022-11-23T14:09:05.889Z,70.50
2022-11-23T14:11:43.708Z,70.80
2022-11-23T14:14:21.675Z,71.10
2022-11-23T14:17:09.597Z,71.30
2022-11-23T14:19:50.613Z,71.50
2022-11-23T14:22:30.498Z,71.70
2022-11-23T14:25:14.719Z,71.90
2022-11-23T14:27:54.833Z,72.10
2022-11-23T14:30:34.102Z,72.30
2022-11-23T14:33:23.657Z,72.50
2022-11-23T14:36:02.846Z,72.50
2022-11-23T14:38:51.931Z,72.70
2022-11-23T14:41:23.639Z,72.90
2022-11-23T14:43:53.734Z,73.00
2022-11-23T14:46:25.803Z,73.10
2022-11-23T14:49:16.943Z,73.40
2022-11-23T14:51:46.102Z,73.70
2022-11-23T14:54:17.889Z,73.90
2022-11-23T14:56:49.018Z,74.30
2022-11-23T14:59:24.691Z,74.60
2022-11-23T15:01:57.684Z,74.70
2022-11-23T15:04:34.728Z,75.00
2022-11-23T15:07:26.540Z,75.40
2022-11-23T15:10:05.154Z,75.50
2022-11-23T15:12:45.045Z,75.90
2022-11-23T15:15:25.165Z,76.50
2022-11-23T15:17:58.070Z,77.00
2022-11-23T15:20:54.595Z,77.50
2022-11-23T15:23:38.885Z,77.80
2022-11-23T15:26:42.063Z,78.30
2022-11-23T15:29:33.939Z,78.70
2022-11-23T15:32:29.314Z,79.40
2022-11-23T15:35:16.165Z,79.90
2022-11-23T15:37:49.298Z,80.60
2022-11-23T15:40:20.605Z,81.10
2022-11-23T15:42:52.143Z,81.80
2022-11-23T15:45:38.687Z,82.40
2022-11-23T15:48:13.543Z,82.80
2022-11-23T15:50:55.090Z,82.80
2022-11-23T15:53:29.316Z,82.90
2022-11-23T15:56:02.840Z,82.90
2022-11-23T15:58:32.692Z,82.90
2022-11-23T16:01:08.757Z,82.80
2022-11-23T16:03:42.866Z,82.60
2022-11-23T16:06:26.566Z,82.10
2022-11-23T16:08:57.274Z,81.40
2022-11-23T16:11:32.529Z,80.50
2022-11-23T16:14:15.819Z,79.90
2022-11-23T16:16:46.424Z,78.80
2022-11-23T16:19:28.436Z,78.40
2022-11-23T16:22:02.849Z,77.90
2022-11-23T16:24:37.137Z,75.90
2022-11-23T16:27:14.748Z,74.50
2022-11-23T16:29:44.017Z,74.30
2022-11-23T16:32:25.564Z,74.30
2022-11-23T16:34:55.760Z,73.80
2022-11-23T16:37:26.939Z,72.90
2022-11-23T16:39:57.484Z,72.40
2022-11-23T16:42:27.370Z,71.70
2022-11-23T16:44:56.382Z,71.80
2022-11-23T16:47:27.288Z,72.10
2022-11-23T16:50:14.964Z,72.20
2022-11-23T16:52:44.496Z,72.30
2022-11-23T16:55:15.225Z,72.30
2022-11-23T16:57:45.311Z,71.70
2022-11-23T17:00:18.079Z,71.90
2022-11-23T17:02:47.102Z,72.20
2022-11-23T17:05:17.780Z,72.60
2022-11-23T17:07:46.780Z,73.00
2022-11-23T17:10:18.105Z,73.20
2022-11-23T17:12:52.116Z,73.70
2022-11-23T17:15:22.953Z,74.10
2022-11-23T17:17:52.185Z,74.50
2022-11-23T17:20:21.488Z,75.20
2022-11-23T17:22:52.218Z,75.70
2022-11-23T17:25:22.775Z,76.20
2022-11-23T17:27:52.070Z,76.70
2022-11-23T17:30:22.986Z,77.00
2022-11-23T17:32:52.156Z,77.40
2022-11-23T17:35:21.796Z,78.00
2022-11-23T17:37:50.716Z,78.60
2022-11-23T17:40:22.719Z,79.20
2022-11-23T17:42:51.505Z,79.70
2022-11-23T17:45:20.755Z,80.00
2022-11-23T17:47:50.513Z,81.00
2022-11-23T17:50:20.567Z,81.20
2022-11-23T17:52:50.856Z,82.10
2022-11-23T17:55:19.959Z,82.90
2022-11-23T17:57:50.201Z,83.30
2022-11-23T18:00:21.806Z,83.90
2022-11-23T18:02:52.243Z,84.30
2022-11-23T18:05:22.151Z,84.80
2022-11-23T18:07:51.616Z,85.30
2022-11-23T18:10:20.768Z,85.80
2022-11-23T18:12:51.375Z,86.30
2022-11-23T18:15:20.468Z,86.70
2022-11-23T18:17:49.606Z,87.20
2022-11-23T18:20:18.541Z,87.80
2022-11-23T18:22:47.751Z,88.10
2022-11-23T18:25:17.500Z,88.50
2022-11-23T18:27:46.616Z,88.90
2022-11-23T18:30:18.032Z,89.20
2022-11-23T18:32:47.168Z,89.60
2022-11-23T18:35:15.941Z,90.00
2022-11-23T18:37:45.378Z,90.10
2022-11-23T18:40:15.559Z,90.30
2022-11-23T18:42:44.971Z,90.40
2022-11-23T18:45:14.006Z,90.90
2022-11-23T18:47:44.315Z,90.80
2022-11-23T18:50:13.473Z,90.80
2022-11-23T18:52:42.247Z,90.80
2022-11-23T18:55:11.413Z,90.90
2022-11-23T18:57:40.327Z,91.20
2022-11-23T19:00:12.871Z,91.50
2022-11-23T19:02:41.703Z,91.80
2022-11-23T19:05:12.120Z,91.90
2022-11-23T19:07:41.084Z,91.90
2022-11-23T19:10:10.863Z,92.00
2022-11-23T19:12:39.867Z,92.20
2022-11-23T19:15:10.001Z,92.40
2022-11-23T19:17:39.565Z,92.50
2022-11-23T19:20:10.159Z,92.60
2022-11-23T19:22:40.639Z,92.60
2022-11-23T19:25:10.881Z,92.70
2022-11-23T19:27:40.806Z,92.80
2022-11-23T19:30:11.146Z,92.80
2022-11-23T19:33:00.175Z,92.80
2022-11-23T19:35:29.904Z,92.80
2022-11-23T19:38:00.349Z,92.80
2022-11-23T19:40:30.013Z,92.90
2022-11-23T19:42:59.001Z,93.00
2022-11-23T19:45:27.595Z,93.20
2022-11-23T19:47:56.291Z,93.30
2022-11-23T19:50:25.105Z,93.30
2022-11-23T19:53:11.776Z,93.40
2022-11-23T19:55:42.730Z,93.60
2022-11-23T19:58:11.569Z,93.70
2022-11-23T20:00:40.146Z,93.90
2022-11-23T20:03:08.689Z,94.00
2022-11-23T20:05:37.367Z,94.10
2022-11-23T20:08:05.993Z,94.20
2022-11-23T20:10:34.680Z,94.30
2022-11-23T20:13:23.524Z,94.40
2022-11-23T20:15:52.057Z,94.40
2022-11-23T20:18:24.387Z,94.50
2022-11-23T20:20:56.006Z,94.50
2022-11-23T20:23:24.642Z,94.60
2022-11-23T20:25:56.835Z,94.60
2022-11-23T20:28:27.286Z,94.60
2022-11-23T20:30:55.951Z,94.50
2022-11-23T20:33:24.438Z,94.50
2022-11-23T20:35:52.974Z,94.60
2022-11-23T20:38:21.648Z,94.50
2022-11-23T20:40:50.771Z,94.50
2022-11-23T20:43:19.289Z,94.50
2022-11-23T20:45:49.260Z,94.60
2022-11-23T20:48:17.804Z,94.70
2022-11-23T20:50:46.414Z,94.90
2022-11-23T20:53:15.075Z,94.70
2022-11-23T20:55:44.256Z,94.80
2022-11-23T20:58:13.060Z,94.80
2022-11-23T21:00:41.609Z,94.70
2022-11-23T21:03:11.689Z,94.70
2022-11-23T21:05:40.404Z,94.70
2022-11-23T21:08:11.603Z,94.70
2022-11-23T21:10:58.401Z,94.70
2022-11-23T21:13:49.863Z,94.70
2022-11-23T21:16:18.868Z,94.60
2022-11-23T21:18:48.899Z,94.70
2022-11-23T21:21:17.623Z,94.70
2022-11-23T21:23:50.978Z,94.70
2022-11-23T21:26:21.081Z,94.80
2022-11-23T21:28:49.731Z,95.00
2022-11-23T21:31:18.263Z,95.10
2022-11-23T21:33:49.504Z,95.10
2022-11-23T21:36:23.881Z,95.20
2022-11-23T21:38:52.887Z,95.10
2022-11-23T21:41:21.524Z,95.00
2022-11-23T21:43:52.793Z,95.00
2022-11-23T21:46:21.765Z,95.00
2022-11-23T21:48:53.028Z,94.90
2022-11-23T21:51:21.770Z,94.70
2022-11-23T21:53:51.743Z,94.60
2022-11-23T21:56:20.396Z,94.60
2022-11-23T21:58:49.057Z,94.50
2022-11-23T22:01:18.808Z,94.30
2022-11-23T22:03:47.834Z,94.20
2022-11-23T22:06:20.411Z,94.20
2022-11-23T22:08:50.122Z,94.10
2022-11-23T22:11:21.201Z,93.90
2022-11-23T22:13:50.210Z,93.70
2022-11-23T22:16:19.920Z,93.70
2022-11-23T22:18:54.001Z,93.60
2022-11-23T22:21:24.905Z,93.50
2022-11-23T22:23:53.794Z,93.50
2022-11-23T22:26:23.851Z,93.40
2022-11-23T22:28:52.942Z,93.30
2022-11-23T22:31:21.961Z,93.20
2022-11-23T22:33:50.905Z,93.00
2022-11-23T22:36:20.820Z,92.80
2022-11-23T22:38:49.592Z,92.70
2022-11-23T22:41:18.785Z,92.60
2022-11-23T22:43:48.875Z,92.50
2022-11-23T22:46:18.435Z,92.30
2022-11-23T22:48:47.833Z,92.20
2022-11-23T22:51:17.274Z,92.20
2022-11-23T22:53:46.020Z,92.10
2022-11-23T22:56:15.221Z,92.00
2022-11-23T22:58:43.973Z,91.90
2022-11-23T23:01:14.970Z,91.70
2022-11-23T23:03:43.898Z,91.60
2022-11-23T23:06:16.012Z,91.50
2022-11-23T23:08:44.541Z,91.50
2022-11-23T23:11:13.754Z,91.50
2022-11-23T23:13:42.352Z,91.40
2022-11-23T23:16:12.649Z,91.40
2022-11-23T23:18:43.456Z,91.40
2022-11-23T23:21:12.875Z,91.30
2022-11-23T23:23:42.389Z,91.30
2022-11-23T23:26:11.339Z,91.30
2022-11-23T23:28:40.298Z,91.30
2022-11-23T23:31:09.652Z,91.40
2022-11-23T23:33:38.590Z,91.40
2022-11-23T23:36:09.567Z,91.40
2022-11-23T23:38:38.196Z,91.40
2022-11-23T23:41:07.471Z,91.40
2022-11-23T23:43:36.203Z,91.40
2022-11-23T23:46:06.061Z,91.50
2022-11-23T23:48:35.449Z,91.50
2022-11-23T23:51:06.343Z,91.60
2022-11-23T23:53:36.832Z,91.60
2022-11-23T23:56:07.792Z,91.60
2022-11-23T23:58:36.702Z,91.50
